createdAt,value
2023-01-17T00:00:07.170Z,6.30
2023-01-17T00:02:34.231Z,6.30
2023-01-17T00:05:19.458Z,6.40
2023-01-17T00:08:05.428Z,6.40
2023-01-17T00:10:32.337Z,6.40
2023-01-17T00:13:03.484Z,6.50
2023-01-17T00:15:31.284Z,6.60
2023-01-17T00:17:58.581Z,6.60
2023-01-17T00:20:45.769Z,6.70
2023-01-17T00:23:33.993Z,6.70
2023-01-17T00:26:04.168Z,6.70
2023-01-17T00:28:49.096Z,6.70
2023-01-17T00:31:16.466Z,6.70
2023-01-17T00:33:43.491Z,6.60
2023-01-17T00:36:10.863Z,6.60
2023-01-17T00:38:38.594Z,6.60
2023-01-17T00:41:06.883Z,6.50
2023-01-17T00:43:52.571Z,6.50
2023-01-17T00:46:38.460Z,6.40
2023-01-17T00:49:24.324Z,6.40
2023-01-17T00:52:09.673Z,6.40
2023-01-17T00:54:55.610Z,6.40
2023-01-17T00:57:40.804Z,6.40
2023-01-17T01:00:27.603Z,6.30
2023-01-17T01:03:13.055Z,6.30
2023-01-17T01:05:58.435Z,6.30
2023-01-17T01:08:45.896Z,6.40
2023-01-17T01:11:33.225Z,6.40
2023-01-17T01:14:18.969Z,6.40
2023-01-17T01:17:04.919Z,6.50
2023-01-17T01:19:50.291Z,6.50
2023-01-17T01:22:35.636Z,6.50
2023-01-17T01:25:21.144Z,6.50
2023-01-17T01:28:06.540Z,6.60
2023-01-17T01:30:51.824Z,6.60
2023-01-17T01:33:21.312Z,6.60
2023-01-17T01:35:52.601Z,6.60
2023-01-17T01:38:20.887Z,6.60
2023-01-17T01:40:51.609Z,6.60
2023-01-17T01:43:19.920Z,6.50
2023-01-17T01:45:49.286Z,6.50
2023-01-17T01:48:31.963Z,6.50
2023-01-17T01:50:59.060Z,6.40
2023-01-17T01:53:26.455Z,6.40
2023-01-17T01:55:53.488Z,6.40
2023-01-17T01:58:22.414Z,6.30
2023-01-17T02:00:49.507Z,6.30
2023-01-17T02:03:42.922Z,6.30
2023-01-17T02:06:18.763Z,6.30
2023-01-17T02:08:45.709Z,6.30
2023-01-17T02:11:13.164Z,6.30
2023-01-17T02:13:40.549Z,6.40
2023-01-17T02:16:16.881Z,6.40
2023-01-17T02:18:51.323Z,6.40
2023-01-17T02:21:18.279Z,6.40
2023-01-17T02:23:57.390Z,6.30
2023-01-17T02:26:27.429Z,6.20
2023-01-17T02:29:11.266Z,6.10
2023-01-17T02:31:49.775Z,6.00
2023-01-17T02:34:24.640Z,6.00
2023-01-17T02:36:56.085Z,5.90
2023-01-17T02:39:24.514Z,5.90
2023-01-17T02:41:53.933Z,5.90
2023-01-17T02:44:20.908Z,5.80
2023-01-17T02:46:48.831Z,5.80
2023-01-17T02:49:16.438Z,5.70
2023-01-17T02:52:01.951Z,5.70
2023-01-17T02:54:36.249Z,5.60
2023-01-17T02:57:25.889Z,5.50
2023-01-17T02:59:52.823Z,5.50
2023-01-17T03:02:28.476Z,5.50
2023-01-17T03:05:07.883Z,5.50
2023-01-17T03:07:35.151Z,5.50
2023-01-17T03:10:03.695Z,5.40
2023-01-17T03:12:32.330Z,5.40
2023-01-17T03:14:59.238Z,5.30
2023-01-17T03:17:30.510Z,5.30
2023-01-17T03:19:57.849Z,5.30
2023-01-17T03:22:24.677Z,5.20
2023-01-17T03:24:51.626Z,5.20
2023-01-17T03:27:18.628Z,5.30
2023-01-17T03:29:45.561Z,5.30
2023-01-17T03:32:12.429Z,5.30
2023-01-17T03:34:39.309Z,5.30
2023-01-17T03:37:06.265Z,5.30
2023-01-17T03:39:33.157Z,5.30
2023-01-17T03:42:00.062Z,5.30
2023-01-17T03:44:27.056Z,5.30
2023-01-17T03:46:53.953Z,5.40
2023-01-17T03:49:21.036Z,5.40
2023-01-17T03:51:48.008Z,5.40
2023-01-17T03:54:14.869Z,5.50
2023-01-17T03:56:41.752Z,5.50
2023-01-17T03:59:09.728Z,5.60
2023-01-17T04:01:37.967Z,5.60
2023-01-17T04:04:05.019Z,5.70
2023-01-17T04:06:31.973Z,5.70
2023-01-17T04:08:58.835Z,5.80
2023-01-17T04:11:25.687Z,5.90
2023-01-17T04:13:52.582Z,6.00
2023-01-17T04:16:20.103Z,6.00
2023-01-17T04:18:47.051Z,6.10
2023-01-17T04:21:13.884Z,6.10
2023-01-17T04:23:40.824Z,6.10
2023-01-17T04:26:07.671Z,6.20
2023-01-17T04:28:34.742Z,6.30
2023-01-17T04:31:01.680Z,6.30
2023-01-17T04:33:28.675Z,6.40
2023-01-17T04:35:55.932Z,6.50
2023-01-17T04:38:23.674Z,6.50
2023-01-17T04:40:50.918Z,6.60
2023-01-17T04:43:17.785Z,6.60
2023-01-17T04:45:44.599Z,6.70
2023-01-17T04:48:12.858Z,6.70
2023-01-17T04:50:40.063Z,6.70
2023-01-17T04:53:07.062Z,6.70
2023-01-17T04:55:34.019Z,6.70
2023-01-17T04:58:00.911Z,6.70
2023-01-17T05:00:27.924Z,6.70
2023-01-17T05:02:54.773Z,6.60
2023-01-17T05:05:21.645Z,6.60
2023-01-17T05:07:55.562Z,6.50
2023-01-17T05:10:23.124Z,6.50
2023-01-17T05:12:59.577Z,6.50
2023-01-17T05:15:27.156Z,6.50
2023-01-17T05:17:54.259Z,6.50
2023-01-17T05:20:22.270Z,6.50
2023-01-17T05:22:55.647Z,6.40
2023-01-17T05:25:23.550Z,6.50
2023-01-17T05:27:50.499Z,6.50
2023-01-17T05:30:17.979Z,6.50
2023-01-17T05:32:48.031Z,6.60
2023-01-17T05:35:15.593Z,6.60
2023-01-17T05:37:49.071Z,6.70
2023-01-17T05:40:20.209Z,6.70
2023-01-17T05:42:47.756Z,6.70
2023-01-17T05:45:17.068Z,6.70
2023-01-17T05:47:44.768Z,6.80
2023-01-17T05:50:16.013Z,6.80
2023-01-17T05:52:48.893Z,6.80
2023-01-17T05:55:15.724Z,6.80
2023-01-17T05:57:42.569Z,6.80
2023-01-17T06:00:09.938Z,6.90
2023-01-17T06:02:36.852Z,6.90
2023-01-17T06:05:04.064Z,6.90
2023-01-17T06:07:31.598Z,6.90
2023-01-17T06:09:58.472Z,6.90
2023-01-17T06:12:25.392Z,7.00
2023-01-17T06:14:52.352Z,6.90
2023-01-17T06:17:19.238Z,6.90
2023-01-17T06:19:46.144Z,6.90
2023-01-17T06:22:13.043Z,6.90
2023-01-17T06:24:40.008Z,6.90
2023-01-17T06:27:08.766Z,6.90
2023-01-17T06:29:35.689Z,6.90
2023-01-17T06:32:03.136Z,6.90
2023-01-17T06:34:30.011Z,6.80
2023-01-17T06:36:57.096Z,6.80
2023-01-17T06:39:23.986Z,6.90
2023-01-17T06:41:51.493Z,6.90
2023-01-17T06:44:18.495Z,6.90
2023-01-17T06:46:45.519Z,7.00
2023-01-17T06:49:12.422Z,7.00
2023-01-17T06:51:39.362Z,7.00
2023-01-17T06:54:06.357Z,7.00
2023-01-17T06:56:34.077Z,7.00
2023-01-17T06:59:00.992Z,7.00
2023-01-17T07:01:28.220Z,7.10
2023-01-17T07:03:55.225Z,7.10
2023-01-17T07:06:23.935Z,7.10
2023-01-17T07:08:51.128Z,7.10
2023-01-17T07:11:18.132Z,7.10
2023-01-17T07:13:45.192Z,7.10
2023-01-17T07:16:12.278Z,7.10
2023-01-17T07:18:39.227Z,7.20
2023-01-17T07:21:11.687Z,7.20
2023-01-17T07:23:38.679Z,7.20
2023-01-17T07:26:05.597Z,7.20
2023-01-17T07:28:33.386Z,7.20
2023-01-17T07:31:04.542Z,7.20
2023-01-17T07:33:31.501Z,7.30
2023-01-17T07:35:58.339Z,7.30
2023-01-17T07:38:25.184Z,7.30
2023-01-17T07:40:52.067Z,7.40
2023-01-17T07:43:18.975Z,7.40
2023-01-17T07:45:49.356Z,7.40
2023-01-17T07:48:16.791Z,7.30
2023-01-17T07:50:44.016Z,7.40
2023-01-17T07:53:11.068Z,7.40
2023-01-17T07:55:37.930Z,7.40
2023-01-17T07:58:06.347Z,7.50
2023-01-17T08:00:33.167Z,7.50
2023-01-17T08:03:01.301Z,7.50
2023-01-17T08:05:28.507Z,7.50
2023-01-17T08:07:55.358Z,7.50
2023-01-17T08:10:22.767Z,7.50
2023-01-17T08:12:50.399Z,7.60
2023-01-17T08:15:18.100Z,7.60
2023-01-17T08:17:45.556Z,7.50
2023-01-17T08:20:13.019Z,7.50
2023-01-17T08:22:39.908Z,7.50
2023-01-17T08:25:06.947Z,7.60
2023-01-17T08:27:35.552Z,7.60
2023-01-17T08:30:03.222Z,7.60
2023-01-17T08:32:30.386Z,7.60
2023-01-17T08:34:57.621Z,7.60
2023-01-17T08:37:24.738Z,7.50
2023-01-17T08:39:51.715Z,7.50
2023-01-17T08:42:18.593Z,7.50
2023-01-17T08:44:45.448Z,7.50
2023-01-17T08:47:12.413Z,7.60
2023-01-17T08:49:39.316Z,7.80
2023-01-17T08:52:06.457Z,8.30
2023-01-17T08:54:33.477Z,9.00
2023-01-17T08:57:00.294Z,9.80
2023-01-17T08:59:27.150Z,10.10
2023-01-17T09:01:55.574Z,10.20
2023-01-17T09:04:22.651Z,10.10
2023-01-17T09:06:49.607Z,10.00
2023-01-17T09:09:16.976Z,10.00
2023-01-17T09:11:44.021Z,9.90
2023-01-17T09:14:13.152Z,10.40
2023-01-17T09:16:40.164Z,11.40
2023-01-17T09:19:07.066Z,12.70
2023-01-17T09:21:33.950Z,13.90
2023-01-17T09:24:00.803Z,15.10
2023-01-17T09:26:28.781Z,16.00
2023-01-17T09:28:55.836Z,16.80
2023-01-17T09:31:23.321Z,17.40
2023-01-17T09:33:50.717Z,17.90
2023-01-17T09:36:17.992Z,18.30
2023-01-17T09:38:44.939Z,18.50
2023-01-17T09:41:30.399Z,18.70
2023-01-17T09:44:03.147Z,18.90
2023-01-17T09:46:31.810Z,19.00
2023-01-17T09:49:18.859Z,19.00
2023-01-17T09:51:46.387Z,19.10
2023-01-17T09:54:23.035Z,19.10
2023-01-17T09:56:54.769Z,19.00
2023-01-17T09:59:45.792Z,18.90
2023-01-17T10:02:32.001Z,18.90
2023-01-17T10:04:59.172Z,18.80
2023-01-17T10:07:35.126Z,18.70
2023-01-17T10:10:11.350Z,18.60
2023-01-17T10:13:01.564Z,18.40
2023-01-17T10:15:51.095Z,18.30
2023-01-17T10:18:29.835Z,18.10
2023-01-17T10:21:03.698Z,18.00
2023-01-17T10:23:43.051Z,17.80
2023-01-17T10:26:16.398Z,17.70
2023-01-17T10:28:48.926Z,17.50
2023-01-17T10:31:20.875Z,17.30
2023-01-17T10:33:52.808Z,17.10
2023-01-17T10:36:39.971Z,16.90
2023-01-17T10:39:19.604Z,16.70
2023-01-17T10:41:51.054Z,16.50
2023-01-17T10:44:23.638Z,16.30
2023-01-17T10:46:53.374Z,16.20
2023-01-17T10:49:22.307Z,16.10
2023-01-17T10:52:06.066Z,15.90
2023-01-17T10:54:53.355Z,15.70
2023-01-17T10:57:21.726Z,15.40
2023-01-17T10:59:48.959Z,15.10
2023-01-17T11:02:21.927Z,15.00
2023-01-17T11:04:52.144Z,14.80
2023-01-17T11:07:28.839Z,14.60
2023-01-17T11:09:56.738Z,14.40
2023-01-17T11:12:26.762Z,14.20
2023-01-17T11:14:58.839Z,14.00
2023-01-17T11:17:27.817Z,13.70
2023-01-17T11:19:55.634Z,13.50
2023-01-17T11:22:22.793Z,13.20
2023-01-17T11:24:52.761Z,12.90
2023-01-17T11:27:25.633Z,12.50
2023-01-17T11:30:09.345Z,12.30
2023-01-17T11:32:36.339Z,12.00
2023-01-17T11:35:08.087Z,11.80
2023-01-17T11:37:35.557Z,11.60
2023-01-17T11:40:28.540Z,11.50
2023-01-17T11:43:03.099Z,11.30
2023-01-17T11:45:31.442Z,11.10
2023-01-17T11:48:04.369Z,11.00
2023-01-17T11:50:31.266Z,10.80
2023-01-17T11:53:16.940Z,10.70
2023-01-17T11:55:57.662Z,10.60
2023-01-17T11:58:25.514Z,10.50
2023-01-17T12:00:56.803Z,10.40
2023-01-17T12:03:42.330Z,10.30
2023-01-17T12:06:09.276Z,10.30
2023-01-17T12:08:39.061Z,10.20
2023-01-17T12:11:16.810Z,10.20
2023-01-17T12:14:02.667Z,10.10
2023-01-17T12:16:48.198Z,10.00
2023-01-17T12:19:21.722Z,9.90
2023-01-17T12:22:01.349Z,9.80
2023-01-17T12:24:46.921Z,9.60
2023-01-17T12:27:22.984Z,9.60
2023-01-17T12:29:52.717Z,9.50
2023-01-17T12:32:38.105Z,9.50
2023-01-17T12:35:11.197Z,9.40
2023-01-17T12:37:39.822Z,9.40
2023-01-17T12:40:25.296Z,9.40
2023-01-17T12:42:57.520Z,9.30
2023-01-17T12:45:28.482Z,9.30
2023-01-17T12:47:59.259Z,9.30
2023-01-17T12:50:28.945Z,9.20
2023-01-17T12:53:18.343Z,9.30
2023-01-17T12:55:54.105Z,9.20
2023-01-17T12:58:35.264Z,9.20
2023-01-17T13:01:07.557Z,9.20
2023-01-17T13:03:53.191Z,9.20
2023-01-17T13:06:25.067Z,9.20
2023-01-17T13:08:55.923Z,9.20
2023-01-17T13:11:46.900Z,9.10
2023-01-17T13:14:13.896Z,9.10
2023-01-17T13:16:50.345Z,9.10
2023-01-17T13:19:49.658Z,9.10
2023-01-17T13:22:21.850Z,9.00
2023-01-17T13:24:57.983Z,9.00
2023-01-17T13:27:24.820Z,9.00
2023-01-17T13:30:10.613Z,9.00
2023-01-17T13:32:52.762Z,9.00
2023-01-17T13:35:42.139Z,9.00
2023-01-17T13:38:27.806Z,9.00
2023-01-17T13:41:14.925Z,9.00
2023-01-17T13:44:03.413Z,9.00
2023-01-17T13:46:30.897Z,9.00
2023-01-17T13:49:17.771Z,9.00
2023-01-17T13:52:06.452Z,9.00
2023-01-17T13:54:34.280Z,9.00
2023-01-17T13:57:32.937Z,8.90
2023-01-17T14:00:18.749Z,8.90
2023-01-17T14:02:49.142Z,8.90
2023-01-17T14:05:16.636Z,8.90
2023-01-17T14:08:04.119Z,8.90
2023-01-17T14:10:37.318Z,8.90
2023-01-17T14:13:05.660Z,8.90
2023-01-17T14:15:33.807Z,8.90
2023-01-17T14:18:04.909Z,8.80
2023-01-17T14:20:44.295Z,8.80
2023-01-17T14:23:19.248Z,8.80
2023-01-17T14:25:46.186Z,8.70
2023-01-17T14:28:18.865Z,8.70
2023-01-17T14:30:46.020Z,8.70
2023-01-17T14:33:18.623Z,8.60
2023-01-17T14:35:52.885Z,8.60
2023-01-17T14:38:42.301Z,8.60
2023-01-17T14:41:12.003Z,8.60
2023-01-17T14:43:41.007Z,8.50
2023-01-17T14:46:14.513Z,8.50
2023-01-17T14:48:41.758Z,8.50
2023-01-17T14:51:18.304Z,8.40
2023-01-17T14:54:08.017Z,8.40
2023-01-17T14:56:34.896Z,8.30
2023-01-17T14:59:24.753Z,8.30
2023-01-17T15:02:07.190Z,8.30
2023-01-17T15:04:39.793Z,8.30
2023-01-17T15:07:09.528Z,8.30
2023-01-17T15:09:37.508Z,8.30
2023-01-17T15:12:05.249Z,8.30
2023-01-17T15:14:37.745Z,8.30
2023-01-17T15:17:10.997Z,8.30
2023-01-17T15:19:41.661Z,8.30
2023-01-17T15:22:08.686Z,8.30
2023-01-17T15:24:40.309Z,8.20
2023-01-17T15:27:07.156Z,8.20
2023-01-17T15:29:35.288Z,8.20
2023-01-17T15:32:05.943Z,8.20
2023-01-17T15:34:34.982Z,8.10
2023-01-17T15:37:03.426Z,8.10
2023-01-17T15:39:32.103Z,8.10
2023-01-17T15:42:00.431Z,8.00
2023-01-17T15:44:36.059Z,8.00
2023-01-17T15:47:28.155Z,8.00
2023-01-17T15:49:55.137Z,8.00
2023-01-17T15:52:22.031Z,8.00
2023-01-17T15:54:53.633Z,8.00
2023-01-17T15:57:23.682Z,8.00
2023-01-17T15:59:59.852Z,8.00
2023-01-17T16:02:30.841Z,8.00
2023-01-17T16:04:58.370Z,8.00
2023-01-17T16:07:32.500Z,8.00
2023-01-17T16:10:06.625Z,7.90
2023-01-17T16:12:33.568Z,7.90
2023-01-17T16:15:11.883Z,7.90
2023-01-17T16:17:41.613Z,7.90
2023-01-17T16:20:20.160Z,7.90
2023-01-17T16:22:47.906Z,7.90
2023-01-17T16:25:16.109Z,7.80
2023-01-17T16:27:45.508Z,7.80
2023-01-17T16:30:15.570Z,7.70
2023-01-17T16:32:43.035Z,7.70
2023-01-17T16:35:19.190Z,7.70
2023-01-17T16:37:51.667Z,7.70
2023-01-17T16:40:19.928Z,7.60
2023-01-17T16:42:48.141Z,7.60
2023-01-17T16:45:15.525Z,7.60
2023-01-17T16:47:43.465Z,7.60
2023-01-17T16:50:14.588Z,7.60
2023-01-17T16:52:41.772Z,7.60
2023-01-17T16:55:12.420Z,7.60
2023-01-17T16:57:39.323Z,7.60
2023-01-17T17:00:06.557Z,7.60
2023-01-17T17:02:33.542Z,7.60
2023-01-17T17:05:00.633Z,7.60
2023-01-17T17:07:27.566Z,7.50
2023-01-17T17:09:54.445Z,7.50
2023-01-17T17:12:21.307Z,7.50
2023-01-17T17:14:48.498Z,7.50
2023-01-17T17:17:15.434Z,7.50
2023-01-17T17:19:42.335Z,7.50
2023-01-17T17:22:09.253Z,7.40
2023-01-17T17:24:36.109Z,7.40
2023-01-17T17:27:02.958Z,7.40
2023-01-17T17:29:29.842Z,7.40
2023-01-17T17:31:56.821Z,7.40
2023-01-17T17:34:25.855Z,7.40
2023-01-17T17:36:53.006Z,7.40
2023-01-17T17:39:19.959Z,7.40
2023-01-17T17:41:47.361Z,7.40
2023-01-17T17:44:14.325Z,7.40
2023-01-17T17:46:42.290Z,7.40
2023-01-17T17:49:09.257Z,7.40
2023-01-17T17:51:37.777Z,7.40
2023-01-17T17:54:06.031Z,7.30
2023-01-17T17:56:33.505Z,7.30
2023-01-17T17:59:00.931Z,7.30
2023-01-17T18:01:28.156Z,7.30
2023-01-17T18:03:57.072Z,7.30
2023-01-17T18:06:24.250Z,7.30
2023-01-17T18:08:52.393Z,7.30
2023-01-17T18:11:22.734Z,7.30
2023-01-17T18:13:53.680Z,7.30
2023-01-17T18:16:28.516Z,7.40
2023-01-17T18:18:56.355Z,7.40
2023-01-17T18:21:25.357Z,7.40
2023-01-17T18:23:54.434Z,7.40
2023-01-17T18:26:22.919Z,7.40
2023-01-17T18:28:50.119Z,7.40
2023-01-17T18:31:17.131Z,7.40
2023-01-17T18:33:44.052Z,7.40
2023-01-17T18:36:11.671Z,7.40
2023-01-17T18:38:43.980Z,7.40
2023-01-17T18:41:15.190Z,7.40
2023-01-17T18:43:42.796Z,7.40
2023-01-17T18:46:10.368Z,7.40
2023-01-17T18:48:38.071Z,7.40
2023-01-17T18:51:06.337Z,7.40
2023-01-17T18:53:34.879Z,7.40
2023-01-17T18:56:03.186Z,7.40
2023-01-17T18:58:31.612Z,7.50
2023-01-17T19:01:09.306Z,7.50
2023-01-17T19:03:39.138Z,7.60
2023-01-17T19:06:06.714Z,7.60
2023-01-17T19:08:34.638Z,7.60
2023-01-17T19:11:01.759Z,7.60
2023-01-17T19:13:28.600Z,7.60
2023-01-17T19:15:58.941Z,7.70
2023-01-17T19:18:25.817Z,7.70
2023-01-17T19:20:52.698Z,7.70
2023-01-17T19:23:19.653Z,7.70
2023-01-17T19:25:46.700Z,7.70
2023-01-17T19:28:13.611Z,7.70
2023-01-17T19:30:40.860Z,7.70
2023-01-17T19:33:07.790Z,7.70
2023-01-17T19:35:37.537Z,7.70
2023-01-17T19:38:04.486Z,7.70
2023-01-17T19:40:31.619Z,7.70
2023-01-17T19:42:59.275Z,7.60
2023-01-17T19:45:26.411Z,7.60
2023-01-17T19:47:53.469Z,7.60
2023-01-17T19:50:20.625Z,7.60
2023-01-17T19:52:47.697Z,7.60
2023-01-17T19:55:14.699Z,7.60
2023-01-17T19:57:41.717Z,7.60
2023-01-17T20:00:09.485Z,7.60
2023-01-17T20:02:37.609Z,7.60
2023-01-17T20:05:04.800Z,7.60
2023-01-17T20:07:33.743Z,7.60
2023-01-17T20:10:00.807Z,7.60
2023-01-17T20:12:27.694Z,7.50
2023-01-17T20:14:54.576Z,7.50
2023-01-17T20:17:21.451Z,7.40
2023-01-17T20:19:48.398Z,7.40
2023-01-17T20:22:15.338Z,7.40
2023-01-17T20:24:42.333Z,7.40
2023-01-17T20:27:09.191Z,7.40
2023-01-17T20:29:36.243Z,7.40
2023-01-17T20:32:03.299Z,7.30
2023-01-17T20:34:31.597Z,7.30
2023-01-17T20:36:59.555Z,7.30
2023-01-17T20:39:26.664Z,7.30
2023-01-17T20:41:53.533Z,7.30
2023-01-17T20:44:20.548Z,7.20
2023-01-17T20:46:48.314Z,7.20
2023-01-17T20:49:17.282Z,7.20
2023-01-17T20:51:44.778Z,7.20
2023-01-17T20:54:15.868Z,7.20
2023-01-17T20:56:43.075Z,7.10
2023-01-17T20:59:14.607Z,7.20
2023-01-17T21:01:42.147Z,7.20
2023-01-17T21:04:13.110Z,7.20
2023-01-17T21:06:40.855Z,7.20
2023-01-17T21:09:08.947Z,7.20
2023-01-17T21:11:37.140Z,7.20
2023-01-17T21:14:05.829Z,7.20
2023-01-17T21:16:33.706Z,7.20
2023-01-17T21:19:00.801Z,7.20
2023-01-17T21:21:29.065Z,7.20
2023-01-17T21:24:01.184Z,7.20
2023-01-17T21:26:28.437Z,7.20
2023-01-17T21:28:55.658Z,7.20
2023-01-17T21:31:24.681Z,7.20
2023-01-17T21:33:59.047Z,7.20
2023-01-17T21:36:27.876Z,7.20
2023-01-17T21:38:57.130Z,7.10
2023-01-17T21:41:25.805Z,7.20
2023-01-17T21:44:00.032Z,7.10
2023-01-17T21:46:27.673Z,7.10
2023-01-17T21:48:56.890Z,7.20
2023-01-17T21:51:24.455Z,7.20
2023-01-17T21:53:51.471Z,7.20
2023-01-17T21:56:37.080Z,7.10
2023-01-17T21:59:04.126Z,7.20
2023-01-17T22:01:33.252Z,7.20
2023-01-17T22:04:01.306Z,7.20
2023-01-17T22:06:29.922Z,7.20
2023-01-17T22:08:56.858Z,7.20
2023-01-17T22:11:24.786Z,7.20
2023-01-17T22:13:52.201Z,7.20
2023-01-17T22:16:20.608Z,7.20
2023-01-17T22:18:47.468Z,7.20
2023-01-17T22:21:19.342Z,7.20
2023-01-17T22:23:47.692Z,7.20
2023-01-17T22:26:15.479Z,7.10
2023-01-17T22:28:42.844Z,7.20
2023-01-17T22:31:23.698Z,7.20
2023-01-17T22:33:58.209Z,7.20
2023-01-17T22:36:25.167Z,7.30
2023-01-17T22:38:52.200Z,7.30
2023-01-17T22:41:20.900Z,7.30
2023-01-17T22:43:52.209Z,7.30
2023-01-17T22:46:20.593Z,7.40
2023-01-17T22:48:47.567Z,7.30
2023-01-17T22:51:15.887Z,7.30
2023-01-17T22:53:47.376Z,7.30
2023-01-17T22:56:15.552Z,7.40
2023-01-17T22:58:44.924Z,7.40
2023-01-17T23:01:13.590Z,7.40
2023-01-17T23:03:41.378Z,7.40
2023-01-17T23:06:15.695Z,7.40
2023-01-17T23:08:43.548Z,7.50
2023-01-17T23:11:39.141Z,7.40
2023-01-17T23:14:06.159Z,7.40
2023-01-17T23:16:51.528Z,7.40
2023-01-17T23:19:24.294Z,7.40
2023-01-17T23:22:11.084Z,7.40
2023-01-17T23:24:43.422Z,7.30
2023-01-17T23:27:30.075Z,7.20
2023-01-17T23:29:57.000Z,7.10
2023-01-17T23:32:23.988Z,7.10
2023-01-17T23:34:51.165Z,7.10
2023-01-17T23:37:18.310Z,7.10
2023-01-17T23:39:45.289Z,7.10
2023-01-17T23:42:30.754Z,7.00
2023-01-17T23:44:57.738Z,7.10
2023-01-17T23:47:24.938Z,7.00
2023-01-17T23:49:51.955Z,7.00
2023-01-17T23:52:18.852Z,7.00
2023-01-17T23:54:45.794Z,7.00
2023-01-17T23:57:12.674Z,7.00
2023-01-17T23:59:39.633Z,7.00
